createdAt,value
2023-09-23T00:00:54.247Z,19.40
2023-09-23T00:03:24.427Z,19.40
2023-09-23T00:05:58.140Z,19.30
2023-09-23T00:08:25.667Z,19.30
2023-09-23T00:10:54.414Z,19.30
2023-09-23T00:13:23.229Z,19.30
2023-09-23T00:15:51.240Z,19.30
2023-09-23T00:18:19.939Z,19.20
2023-09-23T00:20:49.109Z,19.20
2023-09-23T00:23:18.556Z,19.20
2023-09-23T00:25:48.157Z,19.10
2023-09-23T00:28:16.358Z,19.20
2023-09-23T00:30:47.901Z,19.10
2023-09-23T00:33:18.543Z,19.10
2023-09-23T00:35:49.035Z,19.00
2023-09-23T00:38:18.688Z,19.10
2023-09-23T00:40:46.810Z,19.00
2023-09-23T00:43:14.605Z,19.00
2023-09-23T00:45:50.468Z,19.00
2023-09-23T00:48:23.157Z,19.00
2023-09-23T00:50:53.605Z,19.00
2023-09-23T00:53:24.318Z,19.00
2023-09-23T00:55:57.000Z,18.90
2023-09-23T00:58:26.375Z,18.90
2023-09-23T01:00:56.855Z,18.90
2023-09-23T01:03:24.807Z,18.90
2023-09-23T01:06:06.884Z,18.90
2023-09-23T01:08:34.686Z,18.90
2023-09-23T01:11:05.942Z,19.00
2023-09-23T01:13:33.434Z,19.00
2023-09-23T01:16:07.354Z,18.90
2023-09-23T01:18:36.260Z,18.90
2023-09-23T01:21:04.565Z,18.90
2023-09-23T01:23:35.668Z,18.90
2023-09-23T01:26:06.183Z,19.00
2023-09-23T01:28:36.557Z,18.90
2023-09-23T01:31:06.297Z,19.00
2023-09-23T01:33:35.898Z,19.00
2023-09-23T01:36:04.989Z,19.00
2023-09-23T01:38:33.520Z,19.00
2023-09-23T01:41:03.861Z,19.00
2023-09-23T01:43:31.642Z,19.00
2023-09-23T01:46:05.821Z,19.00
2023-09-23T01:48:33.441Z,19.10
2023-09-23T01:51:01.548Z,19.00
2023-09-23T01:53:29.842Z,19.00
2023-09-23T01:55:57.628Z,19.00
2023-09-23T01:58:26.509Z,19.10
2023-09-23T02:00:59.303Z,19.00
2023-09-23T02:03:27.060Z,19.00
2023-09-23T02:05:55.484Z,19.00
2023-09-23T02:08:23.307Z,19.00
2023-09-23T02:10:53.279Z,19.10
2023-09-23T02:13:22.594Z,19.10
2023-09-23T02:15:50.255Z,19.10
2023-09-23T02:18:18.212Z,19.10
2023-09-23T02:20:45.975Z,19.00
2023-09-23T02:23:16.283Z,19.00
2023-09-23T02:25:44.448Z,19.00
2023-09-23T02:28:12.185Z,19.00
2023-09-23T02:30:39.955Z,19.00
2023-09-23T02:33:08.023Z,19.00
2023-09-23T02:35:35.550Z,18.90
2023-09-23T02:38:03.850Z,18.90
2023-09-23T02:40:32.442Z,19.00
2023-09-23T02:43:01.222Z,19.00
2023-09-23T02:45:29.981Z,18.90
2023-09-23T02:47:57.607Z,18.90
2023-09-23T02:50:25.337Z,18.90
2023-09-23T02:52:53.018Z,18.90
2023-09-23T02:55:21.455Z,18.90
2023-09-23T02:57:52.096Z,18.90
2023-09-23T03:00:31.674Z,18.90
2023-09-23T03:03:01.586Z,18.90
2023-09-23T03:05:33.331Z,18.90
2023-09-23T03:08:02.199Z,18.90
2023-09-23T03:10:50.838Z,18.90
2023-09-23T03:13:22.475Z,18.90
2023-09-23T03:15:52.840Z,18.90
2023-09-23T03:18:35.801Z,18.90
2023-09-23T03:21:11.515Z,18.80
2023-09-23T03:23:41.564Z,18.80
2023-09-23T03:26:10.989Z,18.80
2023-09-23T03:28:42.650Z,18.80
2023-09-23T03:31:11.069Z,18.70
2023-09-23T03:33:38.532Z,18.80
2023-09-23T03:36:07.307Z,18.70
2023-09-23T03:38:34.868Z,18.70
2023-09-23T03:41:04.012Z,18.70
2023-09-23T03:43:31.817Z,18.60
2023-09-23T03:45:59.332Z,18.60
2023-09-23T03:48:29.764Z,18.60
2023-09-23T03:50:57.715Z,18.60
2023-09-23T03:53:25.436Z,18.70
2023-09-23T03:55:54.968Z,18.60
2023-09-23T03:58:22.440Z,18.60
2023-09-23T04:00:50.786Z,18.60
2023-09-23T04:03:21.482Z,18.60
2023-09-23T04:06:00.049Z,18.60
2023-09-23T04:08:29.347Z,18.60
2023-09-23T04:10:56.920Z,18.60
2023-09-23T04:13:27.333Z,18.60
2023-09-23T04:15:59.537Z,18.60
2023-09-23T04:18:27.522Z,18.70
2023-09-23T04:20:55.001Z,18.60
2023-09-23T04:23:22.916Z,18.60
2023-09-23T04:25:53.967Z,18.60
2023-09-23T04:28:23.942Z,18.60
2023-09-23T04:30:55.556Z,18.60
2023-09-23T04:33:25.113Z,18.50
2023-09-23T04:35:52.808Z,18.50
2023-09-23T04:38:20.669Z,18.50
2023-09-23T04:40:49.154Z,18.50
2023-09-23T04:43:18.249Z,18.60
2023-09-23T04:45:45.832Z,18.50
2023-09-23T04:48:13.393Z,18.50
2023-09-23T04:50:43.239Z,18.60
2023-09-23T04:53:10.776Z,18.60
2023-09-23T04:55:38.608Z,18.60
2023-09-23T04:58:08.978Z,18.60
2023-09-23T05:00:38.570Z,18.50
2023-09-23T05:03:09.994Z,18.60
2023-09-23T05:05:38.753Z,18.50
2023-09-23T05:08:11.635Z,18.50
2023-09-23T05:10:41.147Z,18.50
2023-09-23T05:13:11.616Z,18.40
2023-09-23T05:15:39.274Z,18.20
2023-09-23T05:18:10.436Z,18.00
2023-09-23T05:20:37.997Z,17.90
2023-09-23T05:23:07.328Z,17.90
2023-09-23T05:25:38.659Z,17.80
2023-09-23T05:28:10.387Z,17.50
2023-09-23T05:30:38.646Z,17.20
2023-09-23T05:33:06.104Z,17.00
2023-09-23T05:35:33.658Z,16.90
2023-09-23T05:38:02.748Z,16.90
2023-09-23T05:40:31.031Z,16.90
2023-09-23T05:42:58.434Z,16.90
2023-09-23T05:45:26.756Z,17.00
2023-09-23T05:47:54.986Z,17.00
2023-09-23T05:50:23.748Z,17.00
2023-09-23T05:52:51.584Z,17.00
2023-09-23T05:55:19.215Z,17.00
2023-09-23T05:57:47.633Z,17.10
2023-09-23T06:00:16.736Z,17.10
2023-09-23T06:02:46.699Z,17.20
2023-09-23T06:05:15.835Z,17.20
2023-09-23T06:07:43.874Z,17.20
2023-09-23T06:10:12.873Z,17.30
2023-09-23T06:12:40.913Z,17.30
2023-09-23T06:15:10.721Z,17.30
2023-09-23T06:17:39.137Z,17.30
2023-09-23T06:20:07.367Z,17.40
2023-09-23T06:22:36.487Z,17.40
2023-09-23T06:25:05.656Z,17.40
2023-09-23T06:27:33.140Z,17.40
2023-09-23T06:30:00.645Z,17.40
2023-09-23T06:32:30.327Z,17.40
2023-09-23T06:34:57.868Z,17.40
2023-09-23T06:37:25.651Z,17.50
2023-09-23T06:39:54.244Z,17.50
2023-09-23T06:42:23.357Z,17.60
2023-09-23T06:44:50.962Z,17.50
2023-09-23T06:47:19.044Z,17.50
2023-09-23T06:49:46.456Z,17.50
2023-09-23T06:52:13.903Z,17.50
2023-09-23T06:54:41.424Z,17.50
2023-09-23T06:57:08.916Z,17.50
2023-09-23T06:59:36.636Z,17.50
2023-09-23T07:02:04.729Z,17.50
2023-09-23T07:04:32.162Z,17.50
2023-09-23T07:06:59.843Z,17.50
2023-09-23T07:09:29.779Z,17.60
2023-09-23T07:11:57.705Z,17.60
2023-09-23T07:14:25.615Z,17.70
2023-09-23T07:16:53.116Z,17.70
2023-09-23T07:19:20.652Z,17.70
2023-09-23T07:21:49.826Z,17.70
2023-09-23T07:24:17.445Z,17.80
2023-09-23T07:26:44.834Z,17.80
2023-09-23T07:29:12.456Z,17.80
2023-09-23T07:31:40.243Z,17.90
2023-09-23T07:34:07.831Z,17.90
2023-09-23T07:36:35.352Z,17.80
2023-09-23T07:39:03.596Z,17.80
2023-09-23T07:41:31.227Z,17.80
2023-09-23T07:43:59.368Z,17.70
2023-09-23T07:46:27.309Z,17.60
2023-09-23T07:48:55.059Z,17.60
2023-09-23T07:51:22.535Z,17.60
2023-09-23T07:53:53.356Z,17.50
2023-09-23T07:56:21.088Z,17.60
2023-09-23T07:58:48.574Z,17.70
2023-09-23T08:01:16.298Z,17.60
2023-09-23T08:03:44.963Z,17.50
2023-09-23T08:06:13.234Z,17.50
2023-09-23T08:08:40.702Z,17.60
2023-09-23T08:11:08.173Z,17.50
2023-09-23T08:13:36.713Z,17.60
2023-09-23T08:16:05.128Z,17.60
2023-09-23T08:18:32.886Z,17.70
2023-09-23T08:21:00.722Z,17.60
2023-09-23T08:23:28.980Z,17.60
2023-09-23T08:25:56.861Z,17.40
2023-09-23T08:28:24.753Z,17.30
2023-09-23T08:30:55.281Z,17.20
2023-09-23T08:33:22.959Z,17.20
2023-09-23T08:35:50.949Z,17.20
2023-09-23T08:38:18.952Z,17.20
2023-09-23T08:40:47.233Z,17.20
2023-09-23T08:43:18.213Z,17.10
2023-09-23T08:45:47.731Z,17.10
2023-09-23T08:48:17.420Z,17.00
2023-09-23T08:50:45.612Z,17.10
2023-09-23T08:53:16.833Z,17.10
2023-09-23T08:55:49.422Z,17.10
2023-09-23T08:58:16.971Z,17.10
2023-09-23T09:00:48.440Z,17.10
2023-09-23T09:03:16.161Z,17.10
2023-09-23T09:05:45.190Z,17.10
2023-09-23T09:08:14.402Z,17.10
2023-09-23T09:10:42.908Z,17.10
2023-09-23T09:13:11.524Z,17.20
2023-09-23T09:15:39.504Z,17.20
2023-09-23T09:18:08.758Z,17.20
2023-09-23T09:20:37.999Z,17.20
2023-09-23T09:23:05.469Z,17.20
2023-09-23T09:25:32.963Z,17.10
2023-09-23T09:28:00.765Z,17.10
2023-09-23T09:30:29.448Z,17.20
2023-09-23T09:33:03.019Z,17.20
2023-09-23T09:35:35.746Z,17.20
2023-09-23T09:38:17.291Z,17.20
2023-09-23T09:40:47.560Z,17.10
2023-09-23T09:43:16.566Z,17.10
2023-09-23T09:45:48.572Z,17.10
2023-09-23T09:48:17.094Z,17.00
2023-09-23T09:50:47.236Z,16.90
2023-09-23T09:53:15.711Z,17.00
2023-09-23T09:55:43.711Z,16.90
2023-09-23T09:58:11.105Z,16.70
2023-09-23T10:00:45.579Z,16.60
2023-09-23T10:03:14.861Z,16.60
2023-09-23T10:05:47.901Z,16.70
2023-09-23T10:08:21.533Z,16.80
2023-09-23T10:10:50.780Z,16.90
2023-09-23T10:13:26.596Z,17.00
2023-09-23T10:16:04.421Z,17.00
2023-09-23T10:18:39.245Z,17.10
2023-09-23T10:21:08.969Z,17.10
2023-09-23T10:23:41.951Z,17.20
2023-09-23T10:26:20.471Z,17.30
2023-09-23T10:29:01.451Z,17.40
2023-09-23T10:31:30.790Z,17.40
2023-09-23T10:33:58.945Z,17.40
2023-09-23T10:36:27.966Z,17.40
2023-09-23T10:38:59.376Z,17.40
2023-09-23T10:41:36.574Z,17.50
2023-09-23T10:44:04.792Z,17.50
2023-09-23T10:46:34.042Z,17.40
2023-09-23T10:49:03.021Z,17.30
2023-09-23T10:51:30.898Z,17.40
2023-09-23T10:53:59.020Z,17.30
2023-09-23T10:56:28.247Z,17.30
2023-09-23T10:58:56.382Z,17.30
2023-09-23T11:01:25.619Z,17.10
2023-09-23T11:03:53.502Z,17.10
2023-09-23T11:06:21.673Z,17.00
2023-09-23T11:08:51.072Z,17.10
2023-09-23T11:11:19.347Z,17.30
2023-09-23T11:13:47.494Z,17.20
2023-09-23T11:16:15.910Z,17.20
2023-09-23T11:18:44.274Z,17.20
2023-09-23T11:21:14.123Z,17.20
2023-09-23T11:23:41.836Z,17.30
2023-09-23T11:26:09.496Z,17.30
2023-09-23T11:28:37.129Z,17.30
2023-09-23T11:31:04.610Z,17.30
2023-09-23T11:33:32.133Z,17.40
2023-09-23T11:35:59.650Z,17.30
2023-09-23T11:38:27.235Z,17.30
2023-09-23T11:40:56.344Z,17.30
2023-09-23T11:43:23.985Z,17.30
2023-09-23T11:45:51.864Z,17.30
2023-09-23T11:48:19.587Z,17.30
2023-09-23T11:50:47.966Z,17.20
2023-09-23T11:53:15.447Z,17.30
2023-09-23T11:55:43.407Z,17.30
2023-09-23T11:58:12.002Z,17.30
2023-09-23T12:00:41.683Z,17.30
2023-09-23T12:03:09.427Z,17.30
2023-09-23T12:05:37.096Z,17.30
2023-09-23T12:08:05.942Z,17.30
2023-09-23T12:10:33.444Z,17.20
2023-09-23T12:13:06.803Z,17.20
2023-09-23T12:15:35.651Z,17.20
2023-09-23T12:18:04.118Z,17.20
2023-09-23T12:20:33.753Z,17.30
2023-09-23T12:23:02.262Z,17.30
2023-09-23T12:25:31.718Z,17.30
2023-09-23T12:27:59.220Z,17.30
2023-09-23T12:30:27.291Z,17.20
2023-09-23T12:32:55.130Z,17.10
2023-09-23T12:35:22.801Z,17.10
2023-09-23T12:37:50.196Z,17.10
2023-09-23T12:40:19.022Z,17.20
2023-09-23T12:42:46.578Z,17.30
2023-09-23T12:45:14.779Z,17.20
2023-09-23T12:47:55.972Z,17.20
2023-09-23T12:50:26.010Z,17.30
2023-09-23T12:52:54.749Z,17.30
2023-09-23T12:55:23.452Z,17.30
2023-09-23T12:57:54.344Z,17.20
2023-09-23T13:00:22.889Z,17.20
2023-09-23T13:02:54.773Z,17.20
2023-09-23T13:05:22.551Z,17.20
2023-09-23T13:07:52.760Z,17.20
2023-09-23T13:10:20.650Z,17.20
2023-09-23T13:12:48.185Z,17.20
2023-09-23T13:15:16.084Z,17.20
2023-09-23T13:17:44.464Z,17.10
2023-09-23T13:20:12.301Z,17.00
2023-09-23T13:22:39.822Z,17.00
2023-09-23T13:25:08.120Z,17.00
2023-09-23T13:27:35.629Z,17.00
2023-09-23T13:30:03.955Z,16.90
2023-09-23T13:32:32.358Z,16.90
2023-09-23T13:34:59.933Z,16.90
2023-09-23T13:37:27.946Z,16.90
2023-09-23T13:39:56.681Z,17.00
2023-09-23T13:42:24.172Z,17.00
2023-09-23T13:44:51.723Z,17.00
2023-09-23T13:47:20.592Z,16.90
2023-09-23T13:49:49.034Z,16.70
2023-09-23T13:52:16.459Z,16.50
2023-09-23T13:54:45.168Z,16.40
2023-09-23T13:57:14.279Z,16.30
2023-09-23T13:59:41.846Z,16.30
2023-09-23T14:02:14.067Z,16.20
2023-09-23T14:04:41.703Z,16.20
2023-09-23T14:07:09.539Z,16.20
2023-09-23T14:09:38.141Z,16.10
2023-09-23T14:12:06.009Z,16.10
2023-09-23T14:14:36.008Z,16.10
2023-09-23T14:17:03.582Z,16.10
2023-09-23T14:19:34.241Z,16.10
2023-09-23T14:22:02.893Z,16.00
2023-09-23T14:24:30.804Z,16.00
2023-09-23T14:26:58.833Z,16.10
2023-09-23T14:29:26.664Z,16.20
2023-09-23T14:31:54.180Z,16.20
2023-09-23T14:34:21.691Z,16.20
2023-09-23T14:36:50.111Z,16.20
2023-09-23T14:39:18.042Z,16.30
2023-09-23T14:41:46.061Z,16.20
2023-09-23T14:44:13.894Z,16.20
2023-09-23T14:46:41.359Z,16.10
2023-09-23T14:49:11.606Z,16.20
2023-09-23T14:51:40.954Z,16.30
2023-09-23T14:54:08.328Z,16.30
2023-09-23T14:56:37.306Z,16.30
2023-09-23T14:59:04.904Z,16.30
2023-09-23T15:01:34.292Z,16.30
2023-09-23T15:04:01.794Z,16.30
2023-09-23T15:06:29.443Z,16.30
2023-09-23T15:09:01.095Z,16.30
2023-09-23T15:11:29.545Z,16.30
2023-09-23T15:14:00.205Z,16.20
2023-09-23T15:16:29.176Z,16.10
2023-09-23T15:18:57.089Z,16.10
2023-09-23T15:21:24.550Z,16.10
2023-09-23T15:23:52.472Z,16.10
2023-09-23T15:26:20.083Z,16.20
2023-09-23T15:28:47.812Z,16.30
2023-09-23T15:31:15.439Z,16.30
2023-09-23T15:33:43.900Z,16.30
2023-09-23T15:36:13.499Z,16.20
2023-09-23T15:38:41.341Z,16.20
2023-09-23T15:41:10.612Z,16.20
2023-09-23T15:43:38.613Z,16.20
2023-09-23T15:46:07.030Z,16.20
2023-09-23T15:48:36.292Z,16.20
2023-09-23T15:51:16.520Z,16.20
2023-09-23T15:53:44.670Z,16.20
2023-09-23T15:56:12.769Z,16.10
2023-09-23T15:58:40.901Z,16.00
2023-09-23T16:01:09.092Z,16.00
2023-09-23T16:03:37.346Z,15.90
2023-09-23T16:06:06.850Z,15.80
2023-09-23T16:08:34.367Z,15.90
2023-09-23T16:11:04.600Z,15.90
2023-09-23T16:13:34.261Z,15.90
2023-09-23T16:16:02.972Z,15.80
2023-09-23T16:18:30.634Z,15.80
2023-09-23T16:20:59.314Z,15.80
2023-09-23T16:23:26.894Z,15.80
2023-09-23T16:25:54.382Z,15.80
2023-09-23T16:28:23.585Z,15.80
2023-09-23T16:30:51.159Z,15.80
2023-09-23T16:33:18.754Z,15.80
2023-09-23T16:35:46.309Z,15.80
2023-09-23T16:38:15.716Z,15.70
2023-09-23T16:40:46.242Z,15.60
2023-09-23T16:43:13.718Z,15.70
2023-09-23T16:45:41.398Z,15.70
2023-09-23T16:48:09.105Z,15.70
2023-09-23T16:50:38.772Z,15.70
2023-09-23T16:53:08.654Z,15.70
2023-09-23T16:55:36.009Z,15.80
2023-09-23T16:58:03.451Z,15.80
2023-09-23T17:00:31.015Z,15.80
2023-09-23T17:03:02.458Z,15.80
2023-09-23T17:05:30.417Z,15.80
2023-09-23T17:07:59.023Z,15.80
2023-09-23T17:10:26.572Z,15.80
2023-09-23T17:12:55.446Z,15.80
2023-09-23T17:15:23.181Z,15.90
2023-09-23T17:17:51.064Z,15.90
2023-09-23T17:20:18.633Z,15.80
2023-09-23T17:22:46.409Z,15.80
2023-09-23T17:25:14.022Z,15.80
2023-09-23T17:27:41.645Z,15.80
2023-09-23T17:30:09.877Z,15.80
2023-09-23T17:32:37.842Z,15.70
2023-09-23T17:35:06.209Z,15.70
2023-09-23T17:37:34.060Z,15.60
2023-09-23T17:40:01.880Z,15.70
2023-09-23T17:42:29.400Z,15.80
2023-09-23T17:44:56.871Z,15.80
2023-09-23T17:47:24.813Z,15.70
2023-09-23T17:49:53.689Z,15.70
2023-09-23T17:52:21.120Z,15.70
2023-09-23T17:54:50.215Z,15.70
2023-09-23T17:57:19.139Z,15.80
2023-09-23T17:59:46.966Z,15.80
2023-09-23T18:02:15.006Z,15.90
2023-09-23T18:04:44.572Z,15.90
2023-09-23T18:07:12.368Z,15.90
2023-09-23T18:09:40.448Z,15.90
2023-09-23T18:12:10.223Z,15.90
2023-09-23T18:14:38.335Z,15.80
2023-09-23T18:17:05.910Z,15.80
2023-09-23T18:19:38.005Z,15.80
2023-09-23T18:22:07.595Z,15.80
2023-09-23T18:24:35.024Z,15.80
2023-09-23T18:27:03.797Z,15.80
2023-09-23T18:29:32.745Z,15.70
2023-09-23T18:32:00.245Z,15.70
2023-09-23T18:34:30.340Z,15.70
2023-09-23T18:36:57.984Z,15.60
2023-09-23T18:39:25.344Z,15.60
2023-09-23T18:41:53.053Z,15.60
2023-09-23T18:44:21.894Z,15.70
2023-09-23T18:46:50.679Z,15.70
2023-09-23T18:49:19.677Z,15.70
2023-09-23T18:51:47.078Z,15.70
2023-09-23T18:54:14.469Z,15.70
2023-09-23T18:56:42.383Z,15.70
2023-09-23T18:59:09.865Z,15.80
2023-09-23T19:01:37.654Z,15.80
2023-09-23T19:04:05.583Z,15.80
2023-09-23T19:06:33.228Z,15.90
2023-09-23T19:09:00.696Z,15.90
2023-09-23T19:11:28.675Z,15.80
2023-09-23T19:13:57.160Z,15.70
2023-09-23T19:16:26.206Z,15.70
2023-09-23T19:18:54.063Z,15.80
2023-09-23T19:21:21.718Z,15.90
2023-09-23T19:23:49.377Z,16.00
2023-09-23T19:26:17.336Z,16.00
2023-09-23T19:28:45.773Z,16.00
2023-09-23T19:31:14.565Z,16.00
2023-09-23T19:33:43.271Z,15.90
2023-09-23T19:36:11.256Z,16.00
2023-09-23T19:38:38.744Z,16.00
2023-09-23T19:41:07.390Z,15.90
2023-09-23T19:43:37.828Z,16.00
2023-09-23T19:46:06.738Z,15.90
2023-09-23T19:48:35.285Z,15.80
2023-09-23T19:51:04.650Z,15.70
2023-09-23T19:53:33.614Z,15.70
2023-09-23T19:56:01.318Z,15.70
2023-09-23T19:58:28.730Z,15.70
2023-09-23T20:00:56.205Z,15.70
2023-09-23T20:03:23.866Z,15.70
2023-09-23T20:05:51.959Z,15.70
2023-09-23T20:08:20.641Z,15.70
2023-09-23T20:10:48.609Z,15.70
2023-09-23T20:13:18.737Z,15.70
2023-09-23T20:15:46.358Z,15.70
2023-09-23T20:18:15.124Z,15.70
2023-09-23T20:20:46.091Z,15.80
2023-09-23T20:23:13.545Z,15.80
2023-09-23T20:25:42.512Z,15.80
2023-09-23T20:28:09.985Z,15.70
2023-09-23T20:30:37.948Z,15.70
2023-09-23T20:33:06.493Z,15.80
2023-09-23T20:35:34.848Z,15.80
2023-09-23T20:38:02.818Z,15.80
2023-09-23T20:40:30.957Z,15.80
2023-09-23T20:43:02.268Z,15.90
2023-09-23T20:45:30.484Z,15.80
2023-09-23T20:47:59.440Z,15.80
2023-09-23T20:50:29.206Z,15.80
2023-09-23T20:52:59.131Z,15.80
2023-09-23T20:55:27.030Z,15.80
2023-09-23T20:57:55.630Z,15.90
2023-09-23T21:00:23.724Z,16.00
2023-09-23T21:02:51.256Z,16.00
2023-09-23T21:05:18.860Z,16.10
2023-09-23T21:07:46.416Z,16.10
2023-09-23T21:10:14.108Z,16.10
2023-09-23T21:12:43.449Z,16.20
2023-09-23T21:15:31.129Z,16.20
2023-09-23T21:18:00.643Z,16.20
2023-09-23T21:20:28.934Z,16.20
2023-09-23T21:22:56.668Z,16.20
2023-09-23T21:25:24.387Z,16.10
2023-09-23T21:27:52.983Z,16.00
2023-09-23T21:30:20.835Z,15.90
2023-09-23T21:32:48.452Z,15.90
2023-09-23T21:35:17.124Z,15.90
2023-09-23T21:37:44.555Z,15.80
2023-09-23T21:40:13.237Z,15.90
2023-09-23T21:42:40.778Z,15.90
2023-09-23T21:45:08.853Z,16.00
2023-09-23T21:47:36.682Z,16.10
2023-09-23T21:50:04.595Z,16.00
2023-09-23T21:52:33.243Z,16.00
2023-09-23T21:55:01.412Z,16.00
2023-09-23T21:57:29.044Z,16.10
2023-09-23T21:59:58.162Z,16.10
2023-09-23T22:02:26.741Z,16.10
2023-09-23T22:04:54.549Z,16.10
2023-09-23T22:07:23.658Z,16.10
2023-09-23T22:09:53.388Z,16.00
2023-09-23T22:12:20.921Z,16.00
2023-09-23T22:14:48.355Z,16.00
2023-09-23T22:17:16.484Z,16.00
2023-09-23T22:19:44.244Z,16.00
2023-09-23T22:22:17.323Z,16.00
2023-09-23T22:24:44.772Z,16.00
2023-09-23T22:27:12.116Z,15.90
2023-09-23T22:29:40.629Z,15.90
2023-09-23T22:32:09.097Z,15.90
2023-09-23T22:34:38.128Z,15.80
2023-09-23T22:37:06.629Z,15.80
2023-09-23T22:39:36.703Z,15.60
2023-09-23T22:42:06.955Z,15.60
2023-09-23T22:44:35.701Z,15.70
2023-09-23T22:47:05.329Z,15.80
2023-09-23T22:49:32.894Z,15.80
2023-09-23T22:52:00.352Z,15.80
2023-09-23T22:54:28.196Z,15.70
2023-09-23T22:56:55.634Z,15.70
2023-09-23T22:59:25.126Z,15.70
2023-09-23T23:01:54.011Z,15.70
2023-09-23T23:04:26.070Z,15.80
2023-09-23T23:06:53.799Z,15.70
2023-09-23T23:09:23.622Z,15.70
2023-09-23T23:11:51.566Z,15.70
2023-09-23T23:14:19.467Z,15.70
2023-09-23T23:16:47.853Z,15.60
2023-09-23T23:19:15.416Z,15.60
2023-09-23T23:21:44.801Z,15.60
2023-09-23T23:24:13.668Z,15.60
2023-09-23T23:26:41.108Z,15.60
2023-09-23T23:29:10.748Z,15.60
2023-09-23T23:31:39.897Z,15.60
2023-09-23T23:34:07.324Z,15.50
2023-09-23T23:36:35.285Z,15.50
2023-09-23T23:39:08.948Z,15.50
2023-09-23T23:41:36.785Z,15.50
2023-09-23T23:44:06.008Z,15.50
2023-09-23T23:46:33.431Z,15.40
2023-09-23T23:49:01.247Z,15.40
2023-09-23T23:51:30.302Z,15.30
2023-09-23T23:53:57.854Z,15.40
2023-09-23T23:56:27.787Z,15.40
2023-09-23T23:58:55.620Z,15.40
